Time;durP1;ratioP1;P1;durP2;ratioP2;P2;SDS_P1;SDS_P2;PMS_P1;PMS_P2;Temp;Humidity;BMP_temperature;BMP_pressure;BME280_temperature;BME280_humidity;BME280_pressure;Samples;Min_cycle;Max_cycle;Signal;HPM_P1;HPM_P2
2024/03/03 00:01:01;;;;;;;;;;;7.60;85.30;;;;;;5072764;28;20486;-64
2024/03/03 00:03:34;;;;;;;;;;;7.70;85.40;;;;;;5075272;28;19928;-64
2024/03/03 00:06:07;;;;;;;;;;;7.60;85.40;;;;;;5074986;28;20791;-62
2024/03/03 00:08:40;;;;;;;;;;;7.70;85.40;;;;;;5072664;28;19975;-64
2024/03/03 00:11:07;;;;;;;;;;;7.60;85.30;;;;;;5075239;28;19924;-63
2024/03/03 00:13:41;;;;;;;;;;;7.60;85.30;;;;;;5073520;28;20846;-65
2024/03/03 00:16:15;;;;;;;;;;;7.50;85.40;;;;;;5075258;28;19931;-66
2024/03/03 00:18:48;;;;;;;;;;;7.50;85.60;;;;;;5069239;28;19935;-65
2024/03/03 00:21:21;;;;;;;;;;;7.50;85.50;;;;;;5074092;28;19936;-63
2024/03/03 00:23:54;;;;;;;;;;;7.40;85.50;;;;;;5072577;28;19932;-64
2024/03/03 00:26:27;;;;;;;;;;;7.30;85.50;;;;;;5072062;28;19979;-62
2024/03/03 00:29:01;;;;;;;;;;;7.30;85.50;;;;;;5073738;28;19928;-63
2024/03/03 00:31:41;;;;;;;;;;;7.30;85.50;;;;;;5070905;28;20383;-64
2024/03/03 00:34:15;;;;;;;;;;;7.20;85.40;;;;;;5074022;28;20017;-64
2024/03/03 00:36:48;;;;;;;;;;;7.20;85.40;;;;;;5073338;28;20011;-66
2024/03/03 00:39:21;;;;;;;;;;;7.20;85.30;;;;;;5073331;28;20019;-65
2024/03/03 00:41:48;;;;;;;;;;;7.20;85.50;;;;;;5074708;28;19931;-62
2024/03/03 00:44:22;;;;;;;;;;;7.20;85.50;;;;;;5074470;28;19928;-62
2024/03/03 00:46:56;;;;;;;;;;;7.10;85.40;;;;;;5074412;28;20482;-63
2024/03/03 00:49:29;;;;;;;;;;;7.10;85.40;;;;;;5074752;28;20372;-64
2024/03/03 00:52:02;;;;;;;;;;;7.10;85.40;;;;;;5074191;28;19928;-62
2024/03/03 00:54:35;;;;;;;;;;;7.10;85.40;;;;;;5074642;28;19955;-63
2024/03/03 00:57:09;;;;;;;;;;;7.10;85.40;;;;;;5071847;28;19950;-71
2024/03/03 00:59:43;;;;;;;;;;;7.10;85.30;;;;;;5071874;28;19967;-74
2024/03/03 01:02:17;;;;;;;;;;;7.00;85.30;;;;;;5073886;28;20383;-73
2024/03/03 01:04:50;;;;;;;;;;;7.00;85.30;;;;;;5073781;28;19928;-73
2024/03/03 01:07:23;;;;;;;;;;;7.00;85.20;;;;;;5073046;28;19928;-75
2024/03/03 01:09:56;;;;;;;;;;;6.90;85.20;;;;;;5069593;28;20065;-74
2024/03/03 01:12:30;;;;;;;;;;;6.90;85.30;;;;;;5070570;28;20018;-75
2024/03/03 01:15:05;;;;;;;;;;;6.90;85.40;;;;;;5075046;28;19932;-71
2024/03/03 01:17:38;;;;;;;;;;;6.90;85.30;;;;;;5072821;28;19929;-73
2024/03/03 01:20:12;;;;;;;;;;;6.90;85.40;;;;;;5074546;28;19963;-74
2024/03/03 01:22:45;;;;;;;;;;;6.80;85.60;;;;;;5072877;28;19981;-74
2024/03/03 01:25:18;;;;;;;;;;;6.70;85.60;;;;;;5067423;28;19928;-74
2024/03/03 01:27:52;;;;;;;;;;;6.70;85.60;;;;;;5071831;28;19928;-74
2024/03/03 01:30:26;;;;;;;;;;;6.70;85.60;;;;;;5072959;28;19924;-75
2024/03/03 01:33:00;;;;;;;;;;;6.70;85.60;;;;;;5073058;28;20378;-74
2024/03/03 01:35:33;;;;;;;;;;;6.60;85.60;;;;;;5074510;28;20431;-72
2024/03/03 01:38:06;;;;;;;;;;;6.60;85.60;;;;;;5074353;28;19931;-75
2024/03/03 01:40:33;;;;;;;;;;;6.60;85.70;;;;;;5072612;28;19928;-74
2024/03/03 01:43:07;;;;;;;;;;;6.40;85.90;;;;;;5078477;28;19929;-71
2024/03/03 01:45:41;;;;;;;;;;;6.40;86.00;;;;;;5072928;28;20393;-71
2024/03/03 01:48:15;;;;;;;;;;;6.50;85.80;;;;;;5077545;28;20003;-74
2024/03/03 01:50:49;;;;;;;;;;;6.40;85.80;;;;;;5078614;28;19924;-74
2024/03/03 01:53:23;;;;;;;;;;;6.40;85.90;;;;;;5092477;28;19931;-75
2024/03/03 01:55:57;;;;;;;;;;;6.40;85.80;;;;;;5078193;28;20027;-75
2024/03/03 01:58:30;;;;;;;;;;;6.40;85.80;;;;;;5085631;28;19935;-74
2024/03/03 02:01:06;;;;;;;;;;;6.40;86.00;;;;;;5077501;28;19977;-71
2024/03/03 02:03:39;;;;;;;;;;;6.50;85.80;;;;;;5079832;28;20341;-75
2024/03/03 02:06:15;;;;;;;;;;;6.30;85.80;;;;;;5076857;28;19986;-59
2024/03/03 02:08:49;;;;;;;;;;;6.30;86.00;;;;;;5084698;28;19931;-59
2024/03/03 02:11:22;;;;;;;;;;;6.40;86.00;;;;;;5078076;28;19928;-59
2024/03/03 02:13:55;;;;;;;;;;;6.40;85.90;;;;;;5077062;28;20383;-60
2024/03/03 02:16:29;;;;;;;;;;;6.40;85.70;;;;;;5076660;28;19940;-58
2024/03/03 02:19:03;;;;;;;;;;;6.40;85.80;;;;;;5075983;28;19985;-58
2024/03/03 02:21:37;;;;;;;;;;;6.30;85.80;;;;;;5077562;28;19928;-59
2024/03/03 02:24:11;;;;;;;;;;;6.30;85.90;;;;;;5076744;28;19993;-60
2024/03/03 02:26:44;;;;;;;;;;;6.40;85.80;;;;;;5076602;28;20016;-58
2024/03/03 02:29:18;;;;;;;;;;;6.40;85.70;;;;;;5083054;28;19928;-58
2024/03/03 02:31:52;;;;;;;;;;;6.30;85.80;;;;;;5073794;28;19925;-60
2024/03/03 02:34:26;;;;;;;;;;;6.20;85.80;;;;;;5074385;28;20016;-59
2024/03/03 02:37:06;;;;;;;;;;;6.20;85.80;;;;;;5074746;28;20031;-58
2024/03/03 02:39:40;;;;;;;;;;;6.30;85.70;;;;;;5074513;28;19967;-60
2024/03/03 02:42:13;;;;;;;;;;;6.20;85.70;;;;;;5076000;28;19924;-59
2024/03/03 02:44:46;;;;;;;;;;;6.20;85.90;;;;;;5073894;28;19931;-59
2024/03/03 02:47:19;;;;;;;;;;;6.10;86.10;;;;;;5074892;28;19924;-58
2024/03/03 02:49:52;;;;;;;;;;;6.10;86.10;;;;;;5076041;28;19935;-59
2024/03/03 02:52:27;;;;;;;;;;;6.10;86.20;;;;;;5075903;28;20015;-58
2024/03/03 02:55:00;;;;;;;;;;;6.10;86.20;;;;;;5077028;28;19928;-59
2024/03/03 02:57:33;;;;;;;;;;;6.10;86.10;;;;;;5074366;28;20504;-58
2024/03/03 03:00:11;;;;;;;;;;;6.00;86.10;;;;;;5074344;28;19953;-59
2024/03/03 03:02:44;;;;;;;;;;;6.10;86.00;;;;;;5076162;28;19963;-59
2024/03/03 03:05:17;;;;;;;;;;;6.00;86.00;;;;;;5074441;28;20295;-59
2024/03/03 03:07:51;;;;;;;;;;;5.90;86.00;;;;;;5077487;28;19981;-60
2024/03/03 03:10:25;;;;;;;;;;;5.80;86.10;;;;;;5075362;28;19924;-58
2024/03/03 03:12:58;;;;;;;;;;;5.90;86.10;;;;;;5074702;28;19932;-59
2024/03/03 03:15:25;;;;;;;;;;;5.80;86.10;;;;;;5074076;28;19925;-58
2024/03/03 03:17:58;;;;;;;;;;;5.80;86.10;;;;;;5075530;28;19925;-64
2024/03/03 03:20:32;;;;;;;;;;;5.80;85.90;;;;;;5075041;28;19956;-65
2024/03/03 03:23:07;;;;;;;;;;;5.70;86.10;;;;;;5074348;28;20375;-63
2024/03/03 03:25:40;;;;;;;;;;;5.70;86.00;;;;;;5072383;28;19931;-64
2024/03/03 03:28:13;;;;;;;;;;;5.70;86.10;;;;;;5074717;28;19928;-64
2024/03/03 03:30:46;;;;;;;;;;;5.70;85.90;;;;;;5077214;28;19928;-65
2024/03/03 03:33:19;;;;;;;;;;;5.70;85.80;;;;;;5074362;28;20017;-65
2024/03/03 03:35:52;;;;;;;;;;;5.70;85.70;;;;;;5075757;28;20061;-65
2024/03/03 03:38:26;;;;;;;;;;;5.60;85.80;;;;;;5076790;28;19924;-64
2024/03/03 03:41:00;;;;;;;;;;;5.60;85.70;;;;;;5075699;28;20000;-64
2024/03/03 03:43:33;;;;;;;;;;;5.60;85.60;;;;;;5075685;28;20367;-65
2024/03/03 03:46:06;;;;;;;;;;;5.60;85.70;;;;;;5076356;28;20019;-64
2024/03/03 03:48:39;;;;;;;;;;;5.50;85.70;;;;;;5075939;28;19928;-64
2024/03/03 03:51:12;;;;;;;;;;;5.50;85.60;;;;;;5074283;28;20023;-63
2024/03/03 03:53:46;;;;;;;;;;;5.50;85.60;;;;;;5073382;28;19928;-64
2024/03/03 03:56:20;;;;;;;;;;;5.50;85.70;;;;;;5075918;28;19928;-64
2024/03/03 03:58:53;;;;;;;;;;;5.50;85.80;;;;;;5074352;28;20012;-65
2024/03/03 04:01:27;;;;;;;;;;;5.50;85.70;;;;;;5073413;28;19924;-65
2024/03/03 04:03:54;;;;;;;;;;;5.50;85.80;;;;;;5074357;28;19931;-64
2024/03/03 04:06:28;;;;;;;;;;;5.50;85.80;;;;;;5076159;28;20790;-64
2024/03/03 04:09:04;;;;;;;;;;;5.40;85.90;;;;;;5074570;28;19936;-64
2024/03/03 04:11:37;;;;;;;;;;;5.40;85.90;;;;;;5071814;28;19933;-64
2024/03/03 04:14:11;;;;;;;;;;;5.40;85.90;;;;;;5075847;28;19973;-63
2024/03/03 04:16:44;;;;;;;;;;;5.30;85.90;;;;;;5070971;28;20545;-64
2024/03/03 04:19:17;;;;;;;;;;;5.30;86.10;;;;;;5076270;28;19964;-65
2024/03/03 04:21:50;;;;;;;;;;;5.20;86.20;;;;;;5072937;28;19931;-65
2024/03/03 04:24:24;;;;;;;;;;;5.20;86.30;;;;;;5075227;28;19963;-63
2024/03/03 04:26:58;;;;;;;;;;;5.20;86.40;;;;;;5074626;28;19928;-59
2024/03/03 04:29:32;;;;;;;;;;;5.30;86.40;;;;;;5073819;28;19928;-60
2024/03/03 04:32:06;;;;;;;;;;;5.30;86.20;;;;;;5077278;28;19928;-59
2024/03/03 04:34:40;;;;;;;;;;;5.30;86.40;;;;;;5076076;28;20828;-58
2024/03/03 04:37:13;;;;;;;;;;;5.30;86.30;;;;;;5076536;28;20425;-58
2024/03/03 04:39:47;;;;;;;;;;;5.20;86.40;;;;;;5075330;28;19959;-58
2024/03/03 04:42:21;;;;;;;;;;;5.20;86.50;;;;;;5067935;28;19981;-58
2024/03/03 04:44:54;;;;;;;;;;;5.20;86.60;;;;;;5071388;28;23369;-59
2024/03/03 04:47:27;;;;;;;;;;;5.20;86.60;;;;;;5069369;28;20022;-59
2024/03/03 04:50:00;;;;;;;;;;;5.20;86.60;;;;;;5074612;28;19955;-59
2024/03/03 04:52:33;;;;;;;;;;;5.20;86.40;;;;;;5074783;28;20006;-58
2024/03/03 04:55:08;;;;;;;;;;;5.20;86.30;;;;;;5071677;28;19999;-59
2024/03/03 04:57:41;;;;;;;;;;;5.20;86.50;;;;;;5072491;28;19924;-60
2024/03/03 05:00:14;;;;;;;;;;;5.20;86.20;;;;;;5076320;28;19935;-61
2024/03/03 05:02:48;;;;;;;;;;;5.20;86.30;;;;;;5068158;28;19924;-59
2024/03/03 05:05:22;;;;;;;;;;;5.20;86.30;;;;;;5073910;28;20035;-59
2024/03/03 05:08:02;;;;;;;;;;;5.20;86.20;;;;;;5074108;28;19935;-59
2024/03/03 05:10:36;;;;;;;;;;;5.20;86.10;;;;;;5075226;28;20351;-59
2024/03/03 05:13:10;;;;;;;;;;;5.20;86.10;;;;;;5073779;28;19932;-60
2024/03/03 05:15:43;;;;;;;;;;;5.20;86.00;;;;;;5070869;28;20019;-58
2024/03/03 05:18:18;;;;;;;;;;;5.20;86.20;;;;;;5078679;28;19944;-58
2024/03/03 05:20:52;;;;;;;;;;;5.10;86.30;;;;;;5078237;28;20022;-60
2024/03/03 05:23:25;;;;;;;;;;;5.10;86.30;;;;;;5076237;28;19993;-59
2024/03/03 05:25:59;;;;;;;;;;;5.10;86.20;;;;;;5078677;28;19928;-60
2024/03/03 05:28:33;;;;;;;;;;;5.00;86.30;;;;;;5067644;28;20005;-59
2024/03/03 05:31:06;;;;;;;;;;;5.00;86.50;;;;;;5068100;28;19932;-59
2024/03/03 05:33:39;;;;;;;;;;;5.00;86.50;;;;;;5074543;28;19973;-59
2024/03/03 05:36:13;;;;;;;;;;;5.00;86.60;;;;;;5071356;28;19977;-61
2024/03/03 05:38:46;;;;;;;;;;;5.00;86.60;;;;;;5075391;28;19940;-62
2024/03/03 05:41:24;;;;;;;;;;;5.00;86.60;;;;;;5072652;28;19928;-63
2024/03/03 05:43:57;;;;;;;;;;;5.10;86.60;;;;;;5072151;28;19928;-63
2024/03/03 05:46:30;;;;;;;;;;;5.00;86.60;;;;;;5071491;28;20014;-63
2024/03/03 05:49:03;;;;;;;;;;;5.10;86.60;;;;;;5078271;28;19935;-62
2024/03/03 05:51:36;;;;;;;;;;;5.10;86.70;;;;;;5076315;28;19963;-62
2024/03/03 05:54:09;;;;;;;;;;;5.00;86.80;;;;;;5071755;28;19943;-62
2024/03/03 05:56:43;;;;;;;;;;;5.00;86.70;;;;;;5078553;28;19967;-63
2024/03/03 05:59:17;;;;;;;;;;;5.00;86.70;;;;;;5076401;28;19928;-64
2024/03/03 06:01:51;;;;;;;;;;;5.00;86.60;;;;;;5073609;28;20811;-63
2024/03/03 06:04:25;;;;;;;;;;;5.00;86.60;;;;;;5077510;28;20051;-63
2024/03/03 06:06:58;;;;;;;;;;;4.90;86.50;;;;;;5072871;28;19929;-62
2024/03/03 06:09:31;;;;;;;;;;;5.00;86.60;;;;;;5075614;28;19928;-62
2024/03/03 06:12:06;;;;;;;;;;;5.00;86.60;;;;;;5077893;28;20314;-63
2024/03/03 06:14:40;;;;;;;;;;;5.00;86.50;;;;;;5074234;28;20384;-63
2024/03/03 06:17:13;;;;;;;;;;;5.00;86.70;;;;;;5079751;28;19924;-62
2024/03/03 06:19:46;;;;;;;;;;;5.00;86.80;;;;;;5075442;28;19932;-63
2024/03/03 06:22:19;;;;;;;;;;;5.00;86.90;;;;;;5075123;28;19931;-64
2024/03/03 06:24:52;;;;;;;;;;;5.00;86.90;;;;;;5071211;28;19924;-62
2024/03/03 06:27:26;;;;;;;;;;;5.10;86.90;;;;;;5077975;28;19932;-63
2024/03/03 06:30:00;;;;;;;;;;;5.10;86.90;;;;;;5072077;28;22266;-63
2024/03/03 06:32:34;;;;;;;;;;;5.20;87.10;;;;;;5078196;28;19924;-64
2024/03/03 06:35:10;;;;;;;;;;;5.20;87.20;;;;;;5075710;28;19924;-63
2024/03/03 06:37:43;;;;;;;;;;;5.20;87.30;;;;;;5073933;28;19929;-63
2024/03/03 06:40:16;;;;;;;;;;;5.20;87.40;;;;;;5073953;28;19936;-63
2024/03/03 06:42:50;;;;;;;;;;;5.30;87.40;;;;;;5076820;28;20367;-62
2024/03/03 06:45:24;;;;;;;;;;;5.30;87.60;;;;;;5073095;28;19925;-64
2024/03/03 06:47:57;;;;;;;;;;;5.30;87.70;;;;;;5074940;28;19978;-61
2024/03/03 06:50:30;;;;;;;;;;;5.30;87.80;;;;;;5073894;28;19985;-59
2024/03/03 06:53:04;;;;;;;;;;;5.40;87.70;;;;;;5072680;28;19925;-60
2024/03/03 06:55:38;;;;;;;;;;;5.40;87.90;;;;;;5071355;28;20375;-60
2024/03/03 06:58:12;;;;;;;;;;;5.40;87.90;;;;;;5073066;28;20009;-62
2024/03/03 07:00:46;;;;;;;;;;;5.50;87.90;;;;;;5075680;28;20287;-61
2024/03/03 07:03:49;;;;;;;;;;;5.50;88.00;;;;;;5076448;28;19924;-60
2024/03/03 07:06:23;;;;;;;;;;;5.50;88.00;;;;;;5077080;28;19928;-60
2024/03/03 07:08:56;;;;;;;;;;;5.50;88.20;;;;;;5071893;28;19935;-60
2024/03/03 07:11:29;;;;;;;;;;;5.60;88.10;;;;;;5074964;28;20022;-60
2024/03/03 07:13:57;;;;;;;;;;;5.60;88.40;;;;;;5072625;28;19932;-59
2024/03/03 07:16:30;;;;;;;;;;;5.70;88.50;;;;;;5072089;28;21012;-59
2024/03/03 07:18:58;;;;;;;;;;;5.70;88.30;;;;;;5075637;28;19928;-58
2024/03/03 07:21:31;;;;;;;;;;;5.70;88.40;;;;;;5075560;28;19977;-58
2024/03/03 07:24:04;;;;;;;;;;;5.70;88.60;;;;;;5072841;28;19931;-59
2024/03/03 07:26:38;;;;;;;;;;;5.80;88.50;;;;;;5075858;28;19928;-60
2024/03/03 07:29:12;;;;;;;;;;;5.90;88.00;;;;;;5075251;28;19929;-58
2024/03/03 07:31:46;;;;;;;;;;;5.90;87.80;;;;;;5070075;28;20014;-61
2024/03/03 07:34:19;;;;;;;;;;;5.90;88.10;;;;;;5067527;28;19943;-60
2024/03/03 07:36:52;;;;;;;;;;;6.00;88.60;;;;;;5070907;28;19935;-58
2024/03/03 07:39:25;;;;;;;;;;;6.00;88.50;;;;;;5072914;28;19959;-59
2024/03/03 07:41:58;;;;;;;;;;;6.10;88.10;;;;;;5070149;28;19928;-59
2024/03/03 07:44:32;;;;;;;;;;;6.10;88.50;;;;;;5070634;28;19924;-61
2024/03/03 07:47:06;;;;;;;;;;;6.20;88.50;;;;;;5064129;28;19925;-59
2024/03/03 07:49:41;;;;;;;;;;;6.20;88.40;;;;;;5073069;28;19924;-60
2024/03/03 07:52:14;;;;;;;;;;;6.30;88.50;;;;;;5070948;28;20006;-60
2024/03/03 07:54:47;;;;;;;;;;;6.40;88.50;;;;;;5072023;28;19928;-61
2024/03/03 07:57:20;;;;;;;;;;;6.40;88.50;;;;;;5072445;28;19932;-69
2024/03/03 07:59:48;;;;;;;;;;;6.50;88.50;;;;;;5065548;28;20749;-71
2024/03/03 08:02:21;;;;;;;;;;;6.60;88.40;;;;;;5073837;28;20367;-70
2024/03/03 08:04:56;;;;;;;;;;;6.70;88.60;;;;;;5069218;28;19936;-69
2024/03/03 08:07:29;;;;;;;;;;;6.70;88.70;;;;;;5075089;28;19928;-69
2024/03/03 08:10:03;;;;;;;;;;;6.80;88.90;;;;;;5077906;28;19928;-70
2024/03/03 08:12:38;;;;;;;;;;;6.90;89.20;;;;;;5072011;28;19969;-73
2024/03/03 08:15:12;;;;;;;;;;;7.00;89.30;;;;;;5071054;28;19928;-71
2024/03/03 08:17:46;;;;;;;;;;;7.10;89.70;;;;;;5070843;28;20375;-72
2024/03/03 08:20:19;;;;;;;;;;;7.20;89.60;;;;;;5076456;28;19924;-71
2024/03/03 08:22:52;;;;;;;;;;;7.30;89.60;;;;;;5073720;28;19955;-70
2024/03/03 08:25:25;;;;;;;;;;;7.40;89.60;;;;;;5073343;28;19928;-73
2024/03/03 08:28:01;;;;;;;;;;;7.50;89.60;;;;;;5072640;28;19935;-70
2024/03/03 08:30:36;;;;;;;;;;;7.50;89.60;;;;;;5071170;28;19928;-70
2024/03/03 08:33:09;;;;;;;;;;;7.60;89.80;;;;;;5074269;28;19935;-72
2024/03/03 08:35:42;;;;;;;;;;;7.70;89.60;;;;;;5072159;28;19928;-71
2024/03/03 08:38:15;;;;;;;;;;;7.80;89.70;;;;;;5073772;28;19985;-69
2024/03/03 08:40:48;;;;;;;;;;;7.90;89.40;;;;;;5072120;28;19928;-72
2024/03/03 08:43:21;;;;;;;;;;;8.00;89.30;;;;;;5071950;28;19935;-73
2024/03/03 08:45:57;;;;;;;;;;;8.10;89.50;;;;;;5066754;28;19956;-72
2024/03/03 08:48:31;;;;;;;;;;;8.20;89.10;;;;;;5075053;28;19960;-73
2024/03/03 08:51:07;;;;;;;;;;;8.40;89.00;;;;;;5073439;28;19982;-72
2024/03/03 08:53:40;;;;;;;;;;;8.50;88.70;;;;;;5074386;28;19931;-72
2024/03/03 08:56:13;;;;;;;;;;;8.60;88.40;;;;;;5075624;28;19939;-70
2024/03/03 08:58:46;;;;;;;;;;;8.70;88.20;;;;;;5072669;28;20391;-70
2024/03/03 09:01:20;;;;;;;;;;;8.70;88.00;;;;;;5075953;28;19924;-69
2024/03/03 09:03:54;;;;;;;;;;;8.90;87.90;;;;;;5077675;28;19958;-69
2024/03/03 09:06:21;;;;;;;;;;;9.10;87.80;;;;;;5072493;28;19928;-60
2024/03/03 09:08:55;;;;;;;;;;;9.20;87.30;;;;;;5073715;28;19934;-60
2024/03/03 09:11:28;;;;;;;;;;;9.30;86.90;;;;;;5075084;28;19932;-60
2024/03/03 09:14:01;;;;;;;;;;;9.50;86.50;;;;;;5077245;28;20298;-59
2024/03/03 09:16:35;;;;;;;;;;;9.60;86.10;;;;;;5076817;28;19993;-60
2024/03/03 09:19:09;;;;;;;;;;;9.70;86.00;;;;;;5072471;28;20398;-60
2024/03/03 09:21:42;;;;;;;;;;;9.80;85.60;;;;;;5079844;28;20578;-60
2024/03/03 09:24:15;;;;;;;;;;;9.90;85.30;;;;;;5075182;28;20910;-60
2024/03/03 09:26:48;;;;;;;;;;;9.90;84.80;;;;;;5075158;28;19963;-61
2024/03/03 09:29:22;;;;;;;;;;;10.10;84.80;;;;;;5074399;28;20196;-59
2024/03/03 09:31:56;;;;;;;;;;;10.10;84.60;;;;;;5071461;28;19932;-60
2024/03/03 09:34:30;;;;;;;;;;;10.10;84.30;;;;;;5076481;28;19928;-59
2024/03/03 09:37:03;;;;;;;;;;;10.20;84.10;;;;;;5073477;28;20662;-60
2024/03/03 09:39:37;;;;;;;;;;;10.20;83.80;;;;;;5074431;28;19928;-59
2024/03/03 09:42:10;;;;;;;;;;;10.30;83.50;;;;;;5072447;28;19959;-59
2024/03/03 09:44:44;;;;;;;;;;;10.40;83.00;;;;;;5075847;28;19925;-59
2024/03/03 09:47:19;;;;;;;;;;;10.60;82.60;;;;;;5072632;28;19929;-60
2024/03/03 09:49:53;;;;;;;;;;;10.60;82.40;;;;;;5071513;28;19932;-60
2024/03/03 09:52:27;;;;;;;;;;;10.80;82.00;;;;;;5073182;28;20373;-58
2024/03/03 09:55:01;;;;;;;;;;;10.90;81.70;;;;;;5073970;28;19936;-60
2024/03/03 09:57:35;;;;;;;;;;;11.10;81.10;;;;;;5073719;28;19935;-60
2024/03/03 10:00:09;;;;;;;;;;;11.30;80.90;;;;;;5075244;28;19932;-60
2024/03/03 10:02:44;;;;;;;;;;;11.50;79.70;;;;;;5074870;28;19936;-60
2024/03/03 10:05:11;;;;;;;;;;;11.70;79.10;;;;;;5071649;28;19930;-61
2024/03/03 10:07:47;;;;;;;;;;;11.80;78.70;;;;;;5075250;28;19935;-60
2024/03/03 10:10:25;;;;;;;;;;;12.00;78.50;;;;;;5071135;28;20054;-60
2024/03/03 10:12:59;;;;;;;;;;;12.20;78.20;;;;;;5073085;28;20296;-58
2024/03/03 10:15:33;;;;;;;;;;;12.30;77.70;;;;;;5075448;28;20046;-60
2024/03/03 10:18:19;;;;;;;;;;;12.40;77.10;;;;;;5076970;28;20007;-59
2024/03/03 10:20:57;;;;;;;;;;;12.60;76.10;;;;;;5071715;28;20474;-57
2024/03/03 10:23:32;;;;;;;;;;;;;;;;;;5066143;28;20073;-58
2024/03/03 10:26:06;;;;;;;;;;;12.80;76.30;;;;;;5075513;28;19933;-59
2024/03/03 10:28:39;;;;;;;;;;;13.00;75.10;;;;;;5073450;28;19924;-59
2024/03/03 10:31:13;;;;;;;;;;;13.10;74.90;;;;;;5072160;28;19930;-58
2024/03/03 10:33:57;;;;;;;;;;;13.20;73.70;;;;;;5072366;28;19939;-58
2024/03/03 10:36:32;;;;;;;;;;;13.30;74.40;;;;;;5074365;28;19924;-59
2024/03/03 10:39:06;;;;;;;;;;;13.40;73.60;;;;;;5071482;28;19928;-58
2024/03/03 10:41:39;;;;;;;;;;;13.60;73.20;;;;;;5074267;28;19931;-59
2024/03/03 10:44:12;;;;;;;;;;;13.70;73.10;;;;;;5066697;28;20391;-58
2024/03/03 10:46:46;;;;;;;;;;;13.70;71.80;;;;;;5074442;28;20375;-58
2024/03/03 10:49:21;;;;;;;;;;;13.90;71.20;;;;;;5073646;28;20402;-59
2024/03/03 10:51:58;;;;;;;;;;;14.00;71.50;;;;;;5075012;28;19928;-59
2024/03/03 10:54:32;;;;;;;;;;;14.10;70.80;;;;;;5073351;28;19928;-58
2024/03/03 10:56:59;;;;;;;;;;;14.10;71.80;;;;;;5072064;28;19927;-59
2024/03/03 10:59:32;;;;;;;;;;;14.20;71.70;;;;;;5071447;28;19933;-59
2024/03/03 11:02:05;;;;;;;;;;;14.20;71.20;;;;;;5071114;28;19932;-59
2024/03/03 11:04:47;;;;;;;;;;;14.30;70.60;;;;;;5074328;28;19936;-61
2024/03/03 11:07:20;;;;;;;;;;;14.40;71.30;;;;;;5072949;28;19967;-58
2024/03/03 11:09:54;;;;;;;;;;;14.40;70.10;;;;;;5073401;28;19985;-59
2024/03/03 11:12:27;;;;;;;;;;;14.50;70.30;;;;;;5073415;28;19928;-59
2024/03/03 11:15:04;;;;;;;;;;;14.60;69.90;;;;;;5073057;28;19925;-59
2024/03/03 11:17:39;;;;;;;;;;;14.60;69.70;;;;;;5072849;28;20402;-59
2024/03/03 11:20:16;;;;;;;;;;;14.70;69.10;;;;;;5074850;28;19954;-59
2024/03/03 11:22:56;;;;;;;;;;;14.70;68.60;;;;;;5072897;28;20027;-59
2024/03/03 11:25:30;;;;;;;;;;;14.80;68.50;;;;;;5066961;28;19925;-59
2024/03/03 11:28:05;;;;;;;;;;;14.90;69.20;;;;;;5070697;28;19928;-60
2024/03/03 11:30:38;;;;;;;;;;;14.90;68.50;;;;;;5072557;28;19943;-60
2024/03/03 11:33:12;;;;;;;;;;;14.90;68.20;;;;;;5075366;28;20435;-62
2024/03/03 11:35:47;;;;;;;;;;;15.00;67.90;;;;;;5074309;28;20401;-59
2024/03/03 11:38:13;;;;;;;;;;;14.90;68.00;;;;;;5070283;28;19954;-61
2024/03/03 11:40:46;;;;;;;;;;;14.90;67.90;;;;;;5072611;28;19932;-61
2024/03/03 11:43:19;;;;;;;;;;;15.00;67.40;;;;;;5071511;28;19932;-61
2024/03/03 11:45:55;;;;;;;;;;;15.00;67.40;;;;;;5071630;28;19928;-61
2024/03/03 11:48:28;;;;;;;;;;;15.10;67.00;;;;;;5072498;28;19955;-59
2024/03/03 11:51:25;;;;;;;;;;;15.00;66.00;;;;;;5074328;28;20038;-61
2024/03/03 11:54:00;;;;;;;;;;;15.00;64.30;;;;;;5055846;28;19929;-61
2024/03/03 11:56:44;;;;;;;;;;;15.00;65.00;;;;;;5065992;28;19932;-62
2024/03/03 11:59:17;;;;;;;;;;;15.00;65.30;;;;;;5074800;28;19958;-60
2024/03/03 12:01:50;;;;;;;;;;;14.90;64.90;;;;;;5073268;28;20423;-61
2024/03/03 12:04:38;;;;;;;;;;;15.00;65.80;;;;;;5065222;28;21572;-60
2024/03/03 12:07:19;;;;;;;;;;;15.00;65.90;;;;;;5070971;28;19924;-61
2024/03/03 12:09:54;;;;;;;;;;;15.00;66.50;;;;;;5072116;28;19954;-60
2024/03/03 12:12:29;;;;;;;;;;;15.00;67.60;;;;;;5071579;28;19928;-61
2024/03/03 12:14:55;;;;;;;;;;;14.90;66.10;;;;;;5070245;28;20031;-61
2024/03/03 12:17:30;;;;;;;;;;;14.90;67.50;;;;;;5072886;28;19932;-61
2024/03/03 12:20:06;;;;;;;;;;;14.80;67.20;;;;;;5070762;28;19931;-61
2024/03/03 12:22:39;;;;;;;;;;;14.70;65.70;;;;;;5071370;28;19946;-60
2024/03/03 12:25:14;;;;;;;;;;;14.60;66.50;;;;;;5073588;28;19960;-61
2024/03/03 12:27:48;;;;;;;;;;;14.60;66.20;;;;;;5075801;28;19954;-60
2024/03/03 12:30:22;;;;;;;;;;;14.60;67.70;;;;;;5089507;28;19924;-61
2024/03/03 12:32:55;;;;;;;;;;;14.60;66.40;;;;;;5071947;28;19929;-61
2024/03/03 12:35:28;;;;;;;;;;;14.60;65.80;;;;;;5071512;28;19936;-60
2024/03/03 12:38:01;;;;;;;;;;;14.60;67.10;;;;;;5070829;28;20795;-59
2024/03/03 12:40:36;;;;;;;;;;;14.60;66.80;;;;;;5073682;28;19932;-58
2024/03/03 12:43:11;;;;;;;;;;;14.60;66.80;;;;;;5070854;28;20024;-59
2024/03/03 12:45:44;;;;;;;;;;;14.60;65.50;;;;;;5073326;28;20025;-59
2024/03/03 12:48:17;;;;;;;;;;;14.60;66.00;;;;;;5071933;28;19946;-59
2024/03/03 12:50:51;;;;;;;;;;;14.60;66.80;;;;;;5071795;28;19924;-59
2024/03/03 12:53:24;;;;;;;;;;;14.50;67.80;;;;;;5071157;28;19928;-59
2024/03/03 12:56:15;;;;;;;;;;;14.50;67.10;;;;;;5071661;28;19971;-59
2024/03/03 12:58:56;;;;;;;;;;;14.40;67.10;;;;;;5071055;28;19932;-60
2024/03/03 13:01:29;;;;;;;;;;;14.40;67.20;;;;;;5072853;28;20366;-61
2024/03/03 13:04:02;;;;;;;;;;;14.30;67.50;;;;;;5072606;28;19982;-58
2024/03/03 13:06:35;;;;;;;;;;;14.40;64.70;;;;;;5075444;28;19935;-61
2024/03/03 13:09:12;;;;;;;;;;;14.50;65.00;;;;;;5075690;28;19977;-61
2024/03/03 13:11:47;;;;;;;;;;;14.50;65.90;;;;;;5070241;28;19981;-61
2024/03/03 13:14:13;;;;;;;;;;;14.40;65.70;;;;;;5071105;28;19934;-61
2024/03/03 13:16:47;;;;;;;;;;;14.40;66.10;;;;;;5073428;28;19924;-58
2024/03/03 13:19:20;;;;;;;;;;;14.40;65.70;;;;;;5072607;28;19981;-58
2024/03/03 13:22:02;;;;;;;;;;;14.30;66.10;;;;;;5074103;28;20441;-59
2024/03/03 13:24:36;;;;;;;;;;;14.30;67.30;;;;;;5074890;28;20269;-59
2024/03/03 13:27:11;;;;;;;;;;;14.30;65.80;;;;;;5073564;28;19925;-61
2024/03/03 13:29:44;;;;;;;;;;;14.20;66.20;;;;;;5070548;28;20445;-62
2024/03/03 13:32:17;;;;;;;;;;;14.20;65.80;;;;;;5074058;28;20436;-62
2024/03/03 13:34:50;;;;;;;;;;;14.20;67.90;;;;;;5073635;28;19928;-61
2024/03/03 13:37:23;;;;;;;;;;;14.20;66.30;;;;;;5072109;28;19928;-59
2024/03/03 13:39:56;;;;;;;;;;;14.10;67.00;;;;;;5076801;28;21057;-59
2024/03/03 13:42:31;;;;;;;;;;;14.10;66.20;;;;;;5076399;28;20023;-59
2024/03/03 13:44:57;;;;;;;;;;;14.10;67.50;;;;;;5074694;28;19951;-59
2024/03/03 13:47:30;;;;;;;;;;;14.10;66.40;;;;;;5078218;28;19988;-60
2024/03/03 13:50:04;;;;;;;;;;;14.20;67.50;;;;;;5074610;28;19952;-61
2024/03/03 13:52:38;;;;;;;;;;;14.10;66.10;;;;;;5077439;27;19936;-62
2024/03/03 13:55:11;;;;;;;;;;;14.10;68.00;;;;;;5075584;28;20015;-60
2024/03/03 13:57:46;;;;;;;;;;;14.10;65.80;;;;;;5078702;28;20426;-60
2024/03/03 14:00:20;;;;;;;;;;;14.10;66.20;;;;;;5075412;28;19928;-60
2024/03/03 14:02:53;;;;;;;;;;;14.00;67.00;;;;;;5078840;28;20299;-61
2024/03/03 14:05:26;;;;;;;;;;;14.00;67.20;;;;;;5076837;28;19938;-59
2024/03/03 14:07:59;;;;;;;;;;;14.00;67.20;;;;;;5074758;28;19932;-61
2024/03/03 14:10:26;;;;;;;;;;;13.90;67.40;;;;;;5076829;28;20404;-60
2024/03/03 14:13:01;;;;;;;;;;;13.90;66.70;;;;;;5076258;28;20382;-60
2024/03/03 14:15:34;;;;;;;;;;;13.90;67.10;;;;;;5076604;28;19924;-61
2024/03/03 14:18:07;;;;;;;;;;;13.90;67.30;;;;;;5076927;28;19960;-61
2024/03/03 14:20:41;;;;;;;;;;;13.90;68.00;;;;;;5076178;28;19927;-61
2024/03/03 14:23:14;;;;;;;;;;;13.90;68.70;;;;;;5077582;28;19933;-61
2024/03/03 14:25:47;;;;;;;;;;;13.90;67.50;;;;;;5072415;28;19936;-60
2024/03/03 14:28:22;;;;;;;;;;;13.90;68.70;;;;;;5074663;28;20737;-63
2024/03/03 14:30:55;;;;;;;;;;;13.90;68.50;;;;;;5077120;28;20043;-60
2024/03/03 14:33:29;;;;;;;;;;;13.90;68.30;;;;;;5075886;28;19933;-61
2024/03/03 14:36:02;;;;;;;;;;;13.80;67.60;;;;;;5077847;28;19928;-61
2024/03/03 14:38:36;;;;;;;;;;;13.80;68.80;;;;;;5077529;28;20742;-59
2024/03/03 14:41:10;;;;;;;;;;;13.90;69.30;;;;;;5076163;28;19935;-63
2024/03/03 14:43:46;;;;;;;;;;;13.90;69.50;;;;;;5074616;28;19924;-61
2024/03/03 14:46:19;;;;;;;;;;;13.90;68.60;;;;;;5071905;28;20276;-61
2024/03/03 14:48:52;;;;;;;;;;;13.90;69.00;;;;;;5072606;28;19924;-60
2024/03/03 14:51:25;;;;;;;;;;;13.90;69.70;;;;;;5078769;28;19924;-60
2024/03/03 14:53:58;;;;;;;;;;;13.80;69.10;;;;;;5074616;28;19931;-60
2024/03/03 14:56:31;;;;;;;;;;;13.80;68.30;;;;;;5077978;28;19924;-66
2024/03/03 14:59:06;;;;;;;;;;;13.90;69.40;;;;;;5075141;28;20493;-66
2024/03/03 15:01:39;;;;;;;;;;;13.80;69.80;;;;;;5075221;28;19928;-67
2024/03/03 15:04:12;;;;;;;;;;;13.90;69.00;;;;;;5075283;28;19927;-67